Maui, HI

11:21 PM HST on May 29, 2015 (GMT -1000)
Wailuku Kehalani | | Change Station
CLOSE
Current Station
Personal Weather Station
Location: Wailuku, HI
Elevation: 259 ft
Nearby Weather Stations

Elev 259 ft 20.87 °N, 156.50 °W | Updated 31 seconds ago

Scattered Clouds
Scattered Clouds
73.8 °F
Feels Like 73 °F
N
2.7
Wind Variable Wind from NW
Gusts 4.9 mph

Today
High -- | Low -- °F
--% Chance of Precip.
Yesterday
High -- | Low -- °F
Precip. -- in
5:44 AM 7:02 PM
Waxing Gibbous, 89% visible
Pressure 30.04 in
Visibility 10.0 miles
Clouds Scattered Clouds 7000 ft
Heat Index 73 °F
Dew Point 70 °F
Humidity 87%
Rainfall in
Snow Depth Not available.
UV 0.0 out of 12
Pollen Not available.
Air Quality Not available.
Flu Activity Local Activity
METAR PHOG 300854Z 03008KT 10SM SCT070 24/19 A3002 RMK AO2 SLP170 T02390194 51009 $

More Conditions Fewer Conditions

Pressure 30.04 in
Visibility 10.0 miles
Clouds Scattered Clouds 7000 ft
Heat Index 73 °F
Dew Point 70 °F
Humidity 87%
Rainfall in
Snow Depth Not available.
UV 0.0 out of 12
Pollen Not available.
Air Quality Not available.
Flu Activity Local Activity
METAR PHOG 300854Z 03008KT 10SM SCT070 24/19 A3002 RMK AO2 SLP170 T02390194 51009 $

More Conditions Fewer Conditions

10-Day Weather Forecast

Almanac

Astronomy

May. 29, 2015 Rise Set
Actual Time
Civil Twilight
Nautical Twilight
Astronomical Twilight
Moon
Length of Visible Light
Length of Day
Tomorrow will be .
, % of the Moon is Illuminated

Today's Extremes

State Highs State Lows

Community

WunderPhotos

Upload Photos

1,825,475 photos uploaded!

WunderBlogs® & News

Nearby

Air Quality

  Air Quality AQ Index Pollutant
Not available.

Snow Depth

Station Depth Elevation

Earthquake Activity

City Distance Mag. Time & Date
Minimum magnitude displayed is 2.5.

Coastal Water Temperatures

Place Temperature

Stations

Nearby Weather Stations

Station Location Temp. Windchill Dew Point Humidity Wind Precip. Elev Updated Type